Pfugerville's Hourly Summary for Tuesday, March 14, 2017
Hour Temp
(f)
RH
(%)
Solar Rad.
(MJ/m2)
Rainfall
(in)
Wind
(mph)
3/14/2017 12:00 AM 52 96 0 0 2.43
3/14/2017 1:00 AM 52 80 0 0 4.98
3/14/2017 2:00 AM 50 78 0 0 5.5
3/14/2017 3:00 AM 48 76 0 0 5.24
3/14/2017 4:00 AM 46 73 0 0 3.52
3/14/2017 5:00 AM 44 78 0 0 2.39
3/14/2017 6:00 AM 42 76 0 0 2.26
3/14/2017 7:00 AM 41 79 0 0 1.83
3/14/2017 8:00 AM 39 84 0.01 0 1.99
3/14/2017 9:00 AM 41 72 0.35 0 2.11
3/14/2017 10:00 AM 47 58 0.89 0 2.68
3/14/2017 11:00 AM 50 55 1.76 0 3
3/14/2017 12:00 PM 52 51 2.57 0 2.96
3/14/2017 1:00 PM 56 47 2.99 0 2.94
3/14/2017 2:00 PM 61 46 3.15 0 3.2
3/14/2017 3:00 PM 64 42 3.08 0 6.98
3/14/2017 4:00 PM 66 35 2.75 0 8.91
3/14/2017 5:00 PM 68 36 1.91 0 10.28
3/14/2017 6:00 PM 69 35 0.84 0 9.9
3/14/2017 7:00 PM 68 35 0.42 0 8.16
3/14/2017 8:00 PM 65 38 0.04 0 6.2
3/14/2017 9:00 PM 61 45 0 0 2.45
3/14/2017 10:00 PM 58 50 0 0 0.34
3/14/2017 11:00 PM 55 56 0 0 0.99
Data Summary 53 59 20.76 0.00 4.22